Remerton, Georgia
Current Conditions -  °F | °C
As of 12:53 AM on Saturday 20 Dec 2014 (Local Time) from KVLD Reporting Station
Light Rain Light Rain  
Wind Chill: 51°   Ceiling: 9000
Heat Index: 51°   Visibility: 10mi
Dew Point: 48°   Wind: 3mph
Humidity: 89%   Direction: 60°ENE
Pressure: 30.12"   Gusts: NA
Location:  30.7579°N, 83.3062°W
Report Text: KVLD 200553Z AUTO 06003KT 10SM -RA FEW046 BKN090 OVC110 11/09 A3012 RMK AO2 RAB12 SLP206 P0002 60009 T01060089 10122 20106 58003
Loading
Personal Weather Stations






























Interactive Weather Map New forecast layout! Learn more

10-Day Weather Forecast

Advertisements
Track Severe Weather on mobile